createdAt,value
2018-02-08T00:02:03.960Z,18.05
2018-02-08T00:04:30.029Z,16.85
2018-02-08T00:06:56.108Z,17.42
2018-02-08T00:09:22.193Z,14.90
2018-02-08T00:11:48.281Z,16.37
2018-02-08T00:14:14.363Z,13.62
2018-02-08T00:16:40.441Z,13.98
2018-02-08T00:19:06.528Z,14.95
2018-02-08T00:21:32.779Z,14.23
2018-02-08T00:23:58.882Z,12.85
2018-02-08T00:26:24.941Z,12.60
2018-02-08T00:28:51.022Z,11.48
2018-02-08T00:31:17.929Z,11.73
2018-02-08T00:33:44.716Z,11.10
2018-02-08T00:36:10.801Z,11.27
2018-02-08T00:38:36.909Z,11.12
2018-02-08T00:41:02.994Z,9.80
2018-02-08T00:43:29.814Z,10.13
2018-02-08T00:45:55.922Z,9.50
2018-02-08T00:48:22.002Z,10.23
2018-02-08T00:50:48.811Z,10.25
2018-02-08T00:53:14.923Z,9.73
2018-02-08T00:55:41.053Z,11.43
2018-02-08T00:58:07.127Z,11.05
2018-02-08T01:00:33.225Z,10.45
2018-02-08T01:02:59.306Z,10.27
2018-02-08T01:05:25.375Z,9.93
2018-02-08T01:07:51.454Z,10.00
2018-02-08T01:10:17.535Z,9.45
2018-02-08T01:12:43.637Z,10.55
2018-02-08T01:15:09.718Z,8.98
2018-02-08T01:17:35.799Z,8.98
2018-02-08T01:20:01.895Z,11.60
2018-02-08T01:22:28.034Z,10.15
2018-02-08T01:24:54.101Z,8.90
2018-02-08T01:27:20.926Z,9.65
2018-02-08T01:29:47.002Z,9.55
2018-02-08T01:32:13.089Z,9.93
2018-02-08T01:34:39.978Z,9.40
2018-02-08T01:37:06.061Z,9.50
2018-02-08T01:39:32.882Z,8.30
2018-02-08T01:41:58.942Z,9.45
2018-02-08T01:44:25.067Z,9.07
2018-02-08T01:46:51.156Z,8.75
2018-02-08T01:49:37.369Z,10.50
2018-02-08T01:52:04.202Z,8.10
2018-02-08T01:54:30.282Z,8.60
2018-02-08T01:56:56.763Z,10.00
2018-02-08T01:59:23.569Z,8.57
2018-02-08T02:01:49.646Z,8.73
2018-02-08T02:04:15.730Z,7.87
2018-02-08T02:06:41.813Z,9.75
2018-02-08T02:09:07.915Z,7.62
2018-02-08T02:11:34.030Z,8.75
2018-02-08T02:14:00.094Z,8.07
2018-02-08T02:16:26.230Z,8.07
2018-02-08T02:18:52.322Z,7.37
2018-02-08T02:21:19.241Z,8.20
2018-02-08T02:23:45.321Z,7.62
2018-02-08T02:26:11.405Z,8.07
2018-02-08T02:28:37.494Z,8.60
2018-02-08T02:31:03.594Z,8.80
2018-02-08T02:33:29.699Z,8.20
2018-02-08T02:35:55.774Z,7.80
2018-02-08T02:38:21.855Z,6.80
2018-02-08T02:40:47.941Z,8.88
2018-02-08T02:43:14.009Z,7.97
2018-02-08T02:45:40.097Z,7.70
2018-02-08T02:48:06.185Z,8.13
2018-02-08T02:50:32.266Z,8.35
2018-02-08T02:52:59.083Z,8.27
2018-02-08T02:55:25.166Z,8.43
2018-02-08T02:57:51.241Z,7.78
2018-02-08T03:00:18.835Z,8.60
2018-02-08T03:02:44.938Z,9.20
2018-02-08T03:05:11.770Z,8.73
2018-02-08T03:07:38.594Z,9.05
2018-02-08T03:10:05.317Z,7.93
2018-02-08T03:12:31.477Z,7.68
2018-02-08T03:14:57.556Z,7.65
2018-02-08T03:17:23.649Z,7.80
2018-02-08T03:19:50.489Z,7.40
2018-02-08T03:22:17.526Z,8.32
2018-02-08T03:24:44.374Z,8.20
2018-02-08T03:27:10.448Z,8.07
2018-02-08T03:29:36.553Z,8.00
2018-02-08T03:32:02.649Z,8.05
2018-02-08T03:34:29.468Z,8.43
2018-02-08T03:36:55.547Z,9.02
2018-02-08T03:39:21.621Z,8.55
2018-02-08T03:41:47.770Z,8.93
2018-02-08T03:44:13.846Z,7.32
2018-02-08T03:46:39.946Z,8.35
2018-02-08T03:49:06.069Z,8.95
2018-02-08T03:51:32.574Z,9.13
2018-02-08T03:53:58.655Z,7.82
2018-02-08T03:56:24.722Z,8.27
2018-02-08T03:58:50.804Z,8.32
2018-02-08T04:01:17.376Z,7.50
2018-02-08T04:03:43.465Z,9.40
2018-02-08T04:06:09.545Z,7.93
2018-02-08T04:08:35.633Z,8.55
2018-02-08T04:11:01.721Z,8.20
2018-02-08T04:13:27.797Z,9.70
2018-02-08T04:15:54.118Z,8.57
2018-02-08T04:18:20.198Z,8.88
2018-02-08T04:20:46.294Z,9.27
2018-02-08T04:23:13.125Z,9.02
2018-02-08T04:25:39.207Z,9.15
2018-02-08T04:28:06.072Z,8.10
2018-02-08T04:30:32.194Z,10.05
2018-02-08T04:32:58.281Z,8.15
2018-02-08T04:35:24.379Z,9.38
2018-02-08T04:37:50.486Z,8.77
2018-02-08T04:40:35.257Z,7.57
2018-02-08T04:43:19.952Z,8.07
2018-02-08T04:46:04.720Z,8.95
2018-02-08T04:48:30.789Z,8.43
2018-02-08T04:50:56.876Z,9.70
2018-02-08T04:53:22.961Z,8.60
2018-02-08T04:55:49.108Z,9.55
2018-02-08T04:58:15.185Z,9.25
2018-02-08T05:00:41.290Z,11.00
2018-02-08T05:03:07.428Z,11.38
2018-02-08T05:05:33.497Z,9.05
2018-02-08T05:07:59.649Z,8.90
2018-02-08T05:10:25.737Z,9.15
2018-02-08T05:12:51.837Z,11.68
2018-02-08T05:15:17.943Z,9.20
2018-02-08T05:17:44.011Z,9.32
2018-02-08T05:20:10.101Z,9.25
2018-02-08T05:22:36.182Z,11.90
2018-02-08T05:25:03.221Z,9.35
2018-02-08T05:27:30.053Z,9.55
2018-02-08T05:29:56.122Z,10.88
2018-02-08T05:32:22.197Z,10.80
2018-02-08T05:34:48.286Z,11.12
2018-02-08T05:37:14.401Z,10.07
2018-02-08T05:39:40.487Z,11.77
2018-02-08T05:42:06.577Z,11.52
2018-02-08T05:44:32.657Z,11.40
2018-02-08T05:46:58.737Z,11.82
2018-02-08T05:49:24.854Z,12.15
2018-02-08T05:51:50.927Z,11.65
2018-02-08T05:54:17.012Z,11.63
2018-02-08T05:56:43.114Z,12.13
2018-02-08T05:59:09.185Z,11.18
2018-02-08T06:01:35.702Z,10.73
2018-02-08T06:04:01.781Z,11.88
2018-02-08T06:06:34.777Z,10.73
2018-02-08T06:09:00.855Z,11.32
2018-02-08T06:11:26.945Z,10.65
2018-02-08T06:13:53.203Z,12.52
2018-02-08T06:16:19.294Z,12.18
2018-02-08T06:18:45.385Z,13.07
2018-02-08T06:21:11.481Z,11.75
2018-02-08T06:23:38.349Z,11.80
2018-02-08T06:26:04.425Z,11.07
2018-02-08T06:28:30.498Z,12.10
2018-02-08T06:30:56.976Z,11.50
2018-02-08T06:33:23.393Z,10.63
2018-02-08T06:35:49.462Z,10.80
2018-02-08T06:38:15.546Z,12.48
2018-02-08T06:40:41.609Z,11.77
2018-02-08T06:43:07.725Z,11.48
2018-02-08T06:45:33.806Z,11.50
2018-02-08T06:47:59.866Z,13.10
2018-02-08T06:50:25.955Z,13.40
2018-02-08T06:52:52.037Z,12.88
2018-02-08T06:55:18.129Z,10.68
2018-02-08T06:57:44.205Z,12.85
2018-02-08T07:00:11.038Z,13.25
2018-02-08T07:02:37.123Z,11.45
2018-02-08T07:05:03.203Z,11.50
2018-02-08T07:07:30.023Z,12.25
2018-02-08T07:09:56.112Z,12.13
2018-02-08T07:12:22.181Z,13.32
2018-02-08T07:14:48.261Z,12.20
2018-02-08T07:17:14.317Z,12.43
2018-02-08T07:19:40.393Z,12.70
2018-02-08T07:22:06.454Z,11.73
2018-02-08T07:24:32.849Z,11.98
2018-02-08T07:26:58.921Z,14.35
2018-02-08T07:29:26.530Z,12.02
2018-02-08T07:31:52.597Z,13.70
2018-02-08T07:34:18.673Z,12.93
2018-02-08T07:36:44.766Z,11.82
2018-02-08T07:39:11.581Z,13.65
2018-02-08T07:41:37.661Z,12.55
2018-02-08T07:44:03.729Z,13.27
2018-02-08T07:46:29.798Z,13.43
2018-02-08T07:48:56.633Z,13.25
2018-02-08T07:51:23.670Z,11.80
2018-02-08T07:53:49.754Z,11.43
2018-02-08T07:56:15.821Z,11.60
2018-02-08T07:58:41.910Z,12.07
2018-02-08T08:01:07.997Z,13.52
2018-02-08T08:03:34.139Z,15.30
2018-02-08T08:06:00.219Z,14.18
2018-02-08T08:08:26.315Z,14.77
2018-02-08T08:10:52.428Z,16.48
2018-02-08T08:13:18.530Z,15.25
2018-02-08T08:15:44.594Z,15.57
2018-02-08T08:18:10.658Z,14.90
2018-02-08T08:20:37.505Z,16.70
2018-02-08T08:23:04.310Z,18.05
2018-02-08T08:25:30.387Z,17.12
2018-02-08T08:27:56.474Z,17.58
2018-02-08T08:30:22.534Z,15.15
2018-02-08T08:32:49.386Z,15.85
2018-02-08T08:35:15.430Z,15.27
2018-02-08T08:37:41.509Z,15.80
2018-02-08T08:40:07.962Z,15.60
2018-02-08T08:42:34.046Z,15.32
2018-02-08T08:45:00.121Z,15.35
2018-02-08T08:47:26.189Z,16.20
2018-02-08T08:49:59.146Z,16.33
2018-02-08T08:52:25.215Z,15.05
2018-02-08T08:54:51.290Z,14.02
2018-02-08T08:57:17.435Z,15.73
2018-02-08T08:59:43.477Z,13.85
2018-02-08T09:02:09.538Z,14.50
2018-02-08T09:04:35.966Z,15.90
2018-02-08T09:07:02.034Z,15.30
2018-02-08T09:09:28.113Z,15.45
2018-02-08T09:11:54.229Z,16.20
2018-02-08T09:14:20.261Z,15.93
2018-02-08T09:16:46.337Z,16.23
2018-02-08T09:19:12.405Z,17.75
2018-02-08T09:21:39.213Z,15.95
2018-02-08T09:24:05.277Z,13.55
2018-02-08T09:26:32.169Z,14.87
2018-02-08T09:28:58.228Z,15.30
2018-02-08T09:31:24.303Z,15.07
2018-02-08T09:33:50.382Z,16.33
2018-02-08T09:36:17.002Z,15.82
2018-02-08T09:38:43.065Z,15.75
2018-02-08T09:41:09.158Z,15.30
2018-02-08T09:43:35.234Z,16.00
2018-02-08T09:46:01.332Z,16.30
2018-02-08T09:48:27.407Z,16.30
2018-02-08T09:50:53.477Z,15.00
2018-02-08T09:53:19.549Z,14.35
2018-02-08T09:55:45.609Z,16.15
2018-02-08T09:58:11.698Z,14.73
2018-02-08T10:00:37.778Z,16.98
2018-02-08T10:03:03.875Z,16.52
2018-02-08T10:05:29.965Z,14.68
2018-02-08T10:07:56.049Z,14.57
2018-02-08T10:10:22.121Z,16.33
2018-02-08T10:12:48.192Z,13.80
2018-02-08T10:15:14.264Z,15.73
2018-02-08T10:17:40.350Z,15.73
2018-02-08T10:20:06.462Z,15.60
2018-02-08T10:22:32.542Z,14.85
2018-02-08T10:24:58.614Z,15.88
2018-02-08T10:27:24.717Z,15.95
2018-02-08T10:29:50.780Z,15.82
2018-02-08T10:32:16.849Z,17.95
2018-02-08T10:34:42.933Z,15.95
2018-02-08T10:37:10.497Z,15.10
2018-02-08T10:39:36.557Z,17.80
2018-02-08T10:42:03.449Z,17.65
2018-02-08T10:44:29.526Z,16.30
2018-02-08T10:46:55.593Z,15.63
2018-02-08T10:49:22.158Z,16.75
2018-02-08T10:51:48.974Z,16.52
2018-02-08T10:54:15.057Z,16.62
2018-02-08T10:56:41.130Z,16.85
2018-02-08T10:59:08.074Z,18.55
2018-02-08T11:01:34.170Z,18.58
2018-02-08T11:04:00.256Z,18.70
2018-02-08T11:06:26.338Z,18.65
2018-02-08T11:08:52.464Z,17.15
2018-02-08T11:11:18.537Z,20.85
2018-02-08T11:13:44.614Z,19.50
2018-02-08T11:16:10.691Z,19.95
2018-02-08T11:18:43.689Z,18.70
2018-02-08T11:21:09.793Z,18.55
2018-02-08T11:23:36.609Z,20.15
2018-02-08T11:26:02.697Z,20.02
2018-02-08T11:28:28.784Z,19.85
2018-02-08T11:30:54.936Z,20.15
2018-02-08T11:33:21.013Z,20.62
2018-02-08T11:35:47.089Z,20.37
2018-02-08T11:38:13.190Z,22.45
2018-02-08T11:40:39.266Z,22.37
2018-02-08T11:43:05.344Z,21.80
2018-02-08T11:45:31.436Z,23.52
2018-02-08T11:47:57.506Z,22.33
2018-02-08T11:50:23.642Z,21.62
2018-02-08T11:52:49.729Z,24.10
2018-02-08T11:55:16.563Z,21.70
2018-02-08T11:57:42.637Z,23.40
2018-02-08T12:00:08.714Z,22.42
2018-02-08T12:02:35.537Z,23.10
2018-02-08T12:05:01.610Z,20.33
2018-02-08T12:07:28.106Z,22.10
2018-02-08T12:09:54.185Z,22.50
2018-02-08T12:12:20.266Z,22.37
2018-02-08T12:14:46.341Z,22.33
2018-02-08T12:17:12.442Z,22.80
2018-02-08T12:19:38.517Z,23.58
2018-02-08T12:22:04.577Z,23.80
2018-02-08T12:24:30.668Z,20.80
2018-02-08T12:26:56.749Z,25.30
2018-02-08T12:29:22.814Z,22.87
2018-02-08T12:31:48.910Z,22.87
2018-02-08T12:34:14.985Z,22.35
2018-02-08T12:36:41.052Z,21.80
2018-02-08T12:39:08.681Z,22.27
2018-02-08T12:41:35.500Z,23.58
2018-02-08T12:44:01.569Z,24.30
2018-02-08T12:46:27.661Z,23.85
2018-02-08T12:48:53.748Z,21.70
2018-02-08T12:51:19.833Z,21.50
2018-02-08T12:53:45.909Z,23.67
2018-02-08T12:56:11.986Z,23.37
2018-02-08T12:58:38.801Z,22.60
2018-02-08T13:01:05.237Z,23.27
2018-02-08T13:03:31.313Z,24.10
2018-02-08T13:05:57.450Z,22.13
2018-02-08T13:08:23.501Z,21.83
2018-02-08T13:10:49.585Z,23.77
2018-02-08T13:13:15.661Z,25.67
2018-02-08T13:15:42.477Z,26.27
2018-02-08T13:18:08.553Z,25.73
2018-02-08T13:20:34.623Z,26.53
2018-02-08T13:23:00.709Z,24.23
2018-02-08T13:25:26.779Z,23.50
2018-02-08T13:27:52.849Z,25.37
2018-02-08T13:30:18.951Z,26.93
2018-02-08T13:32:45.786Z,26.30
2018-02-08T13:35:11.869Z,26.27
2018-02-08T13:37:37.990Z,26.30
2018-02-08T13:40:10.249Z,27.13
2018-02-08T13:42:36.339Z,26.50
2018-02-08T13:45:02.447Z,26.47
2018-02-08T13:47:31.484Z,27.90
2018-02-08T13:50:03.674Z,28.95
2018-02-08T13:52:36.211Z,29.70
2018-02-08T13:55:09.050Z,27.92
2018-02-08T13:57:35.143Z,27.27
2018-02-08T14:00:03.142Z,25.07
2018-02-08T14:02:29.233Z,27.53
2018-02-08T14:04:55.301Z,26.80
2018-02-08T14:07:21.402Z,27.23
2018-02-08T14:09:47.470Z,28.60
2018-02-08T14:12:13.553Z,31.30
2018-02-08T14:14:46.691Z,29.40
2018-02-08T14:17:12.794Z,29.73
2018-02-08T14:19:38.861Z,30.02
2018-02-08T14:22:04.949Z,29.25
2018-02-08T14:24:31.046Z,30.67
2018-02-08T14:26:57.131Z,30.42
2018-02-08T14:29:23.463Z,31.62
2018-02-08T14:31:51.081Z,30.80
2018-02-08T14:34:17.157Z,33.65
2018-02-08T14:36:43.250Z,29.17
2018-02-08T14:39:09.341Z,31.10
2018-02-08T14:41:35.426Z,31.58
2018-02-08T14:44:01.514Z,31.17
2018-02-08T14:46:27.900Z,29.92
2018-02-08T14:48:54.038Z,30.23
2018-02-08T14:51:20.778Z,31.25
2018-02-08T14:53:46.861Z,29.30
2018-02-08T14:56:12.939Z,29.42
2018-02-08T14:58:39.020Z,29.45
2018-02-08T15:01:05.090Z,28.73
2018-02-08T15:03:31.161Z,29.65
2018-02-08T15:05:57.298Z,29.80
2018-02-08T15:08:23.369Z,28.38
2018-02-08T15:10:49.442Z,28.80
2018-02-08T15:13:15.525Z,28.50
2018-02-08T15:15:41.600Z,29.37
2018-02-08T15:18:08.442Z,27.98
2018-02-08T15:20:34.534Z,28.80
2018-02-08T15:23:00.629Z,27.70
2018-02-08T15:25:26.716Z,31.10
2018-02-08T15:27:53.530Z,29.80
2018-02-08T15:30:26.487Z,29.98
2018-02-08T15:32:52.568Z,30.48
2018-02-08T15:35:18.641Z,28.98
2018-02-08T15:37:44.728Z,28.38
2018-02-08T15:40:10.813Z,30.65
2018-02-08T15:42:36.893Z,29.80
2018-02-08T15:45:02.993Z,29.87
2018-02-08T15:47:29.069Z,29.60
2018-02-08T15:49:55.564Z,31.30
2018-02-08T15:52:21.646Z,28.38
2018-02-08T15:54:48.129Z,31.23
2018-02-08T15:57:14.213Z,30.17
2018-02-08T15:59:40.281Z,32.75
2018-02-08T16:02:07.121Z,28.10
2018-02-08T16:04:33.320Z,30.50
2018-02-08T16:06:59.385Z,31.98
2018-02-08T16:09:25.526Z,32.38
2018-02-08T16:11:51.604Z,29.73
2018-02-08T16:14:17.677Z,30.75
2018-02-08T16:16:43.751Z,29.67
2018-02-08T16:19:09.833Z,33.35
2018-02-08T16:21:36.153Z,31.58
2018-02-08T16:24:02.235Z,33.92
2018-02-08T16:26:28.313Z,36.35
2018-02-08T16:28:54.388Z,35.38
2018-02-08T16:31:20.921Z,35.33
2018-02-08T16:33:46.998Z,33.17
2018-02-08T16:36:13.073Z,34.53
2018-02-08T16:38:39.218Z,33.30
2018-02-08T16:41:05.301Z,32.95
2018-02-08T16:43:31.373Z,32.47
2018-02-08T16:45:57.448Z,32.40
2018-02-08T16:48:23.561Z,32.00
2018-02-08T16:50:49.633Z,31.40
2018-02-08T16:53:15.739Z,32.00
2018-02-08T16:55:42.096Z,31.95
2018-02-08T16:58:08.902Z,33.35
2018-02-08T17:00:34.977Z,31.33
2018-02-08T17:03:01.049Z,32.65
2018-02-08T17:05:27.389Z,34.53
2018-02-08T17:07:53.453Z,33.38
2018-02-08T17:10:19.542Z,34.75
2018-02-08T17:12:45.614Z,35.22
2018-02-08T17:15:11.689Z,34.58
2018-02-08T17:17:37.782Z,33.53
2018-02-08T17:20:03.869Z,32.08
2018-02-08T17:22:29.949Z,34.40
2018-02-08T17:24:56.137Z,31.15
2018-02-08T17:27:22.196Z,30.37
2018-02-08T17:29:48.257Z,33.25
2018-02-08T17:32:14.346Z,33.78
2018-02-08T17:34:40.418Z,33.58
2018-02-08T17:37:06.499Z,32.03
2018-02-08T17:39:32.573Z,32.45
2018-02-08T17:41:58.637Z,31.77
2018-02-08T17:44:24.726Z,33.38
2018-02-08T17:46:51.537Z,29.83
2018-02-08T17:49:18.509Z,32.58
2018-02-08T17:51:44.616Z,35.67
2018-02-08T17:54:10.688Z,33.70
2018-02-08T17:56:36.769Z,32.42
2018-02-08T17:59:02.857Z,33.60
2018-02-08T18:01:28.933Z,32.03
2018-02-08T18:03:55.757Z,32.40
2018-02-08T18:06:21.830Z,30.77
2018-02-08T18:08:47.899Z,29.45
2018-02-08T18:11:13.977Z,30.12
2018-02-08T18:13:40.054Z,30.90
2018-02-08T18:16:06.131Z,29.00
2018-02-08T18:18:32.213Z,29.20
2018-02-08T18:20:58.316Z,31.77
2018-02-08T18:23:24.478Z,28.38
2018-02-08T18:25:50.570Z,28.55
2018-02-08T18:28:16.655Z,27.50
2018-02-08T18:30:42.734Z,30.80
2018-02-08T18:33:08.802Z,31.48
2018-02-08T18:35:34.868Z,31.05
2018-02-08T18:38:00.957Z,31.05
2018-02-08T18:40:27.049Z,28.48
2018-02-08T18:42:53.156Z,30.77
2018-02-08T18:45:19.542Z,31.75
2018-02-08T18:47:45.606Z,31.20
2018-02-08T18:50:13.165Z,29.15
2018-02-08T18:52:39.238Z,28.40
2018-02-08T18:55:05.306Z,30.92
2018-02-08T18:57:31.370Z,30.58
2018-02-08T18:59:57.498Z,28.40
2018-02-08T19:02:24.308Z,30.48
2018-02-08T19:04:50.735Z,30.88
2018-02-08T19:07:16.805Z,30.10
2018-02-08T19:09:42.865Z,28.25
2018-02-08T19:12:08.955Z,29.00
2018-02-08T19:14:35.785Z,31.27
2018-02-08T19:17:02.651Z,30.70
2018-02-08T19:19:28.721Z,28.80
2018-02-08T19:21:55.089Z,29.15
2018-02-08T19:24:22.008Z,31.17
2018-02-08T19:26:48.078Z,29.23
2018-02-08T19:29:14.206Z,29.67
2018-02-08T19:31:40.298Z,29.37
2018-02-08T19:34:06.361Z,29.65
2018-02-08T19:36:32.429Z,32.20
2018-02-08T19:38:58.502Z,33.55
2018-02-08T19:41:24.574Z,33.65
2018-02-08T19:43:50.662Z,34.40
2018-02-08T19:46:16.734Z,34.92
2018-02-08T19:48:42.810Z,34.95
2018-02-08T19:51:09.126Z,33.20
2018-02-08T19:53:35.219Z,35.85
2018-02-08T19:56:01.332Z,32.60
2018-02-08T19:58:27.417Z,35.75
2018-02-08T20:00:53.486Z,35.10
2018-02-08T20:03:19.549Z,31.42
2018-02-08T20:05:45.638Z,33.33
2018-02-08T20:08:11.714Z,34.83
2018-02-08T20:10:37.802Z,32.30
2018-02-08T20:13:03.875Z,32.63
2018-02-08T20:15:31.940Z,35.97
2018-02-08T20:17:58.018Z,33.72
2018-02-08T20:20:24.085Z,32.60
2018-02-08T20:22:50.385Z,31.95
2018-02-08T20:25:18.081Z,32.83
2018-02-08T20:27:44.146Z,31.27
2018-02-08T20:30:10.221Z,34.15
2018-02-08T20:32:36.290Z,35.47
2018-02-08T20:35:02.413Z,31.65
2018-02-08T20:37:28.502Z,31.08
2018-02-08T20:39:54.586Z,32.30
2018-02-08T20:42:26.846Z,30.88
2018-02-08T20:44:52.924Z,31.80
2018-02-08T20:47:19.005Z,33.10
2018-02-08T20:49:51.146Z,32.67
2018-02-08T20:52:17.216Z,31.77
2018-02-08T20:54:43.355Z,31.40
2018-02-08T20:57:16.501Z,34.83
2018-02-08T20:59:42.578Z,33.85
2018-02-08T21:02:08.714Z,30.52
2018-02-08T21:04:34.796Z,31.83
2018-02-08T21:07:00.862Z,33.20
2018-02-08T21:09:26.941Z,33.33
2018-02-08T21:11:53.073Z,33.40
2018-02-08T21:14:19.891Z,30.35
2018-02-08T21:16:45.958Z,31.95
2018-02-08T21:19:12.021Z,33.28
2018-02-08T21:21:38.086Z,34.88
2018-02-08T21:24:04.167Z,32.05
2018-02-08T21:26:30.234Z,34.55
2018-02-08T21:28:56.374Z,33.88
2018-02-08T21:31:23.211Z,35.88
2018-02-08T21:33:49.286Z,33.58
2018-02-08T21:36:15.374Z,32.88
2018-02-08T21:38:42.174Z,32.78
2018-02-08T21:41:08.240Z,36.13
2018-02-08T21:43:34.317Z,33.15
2018-02-08T21:46:00.411Z,34.85
2018-02-08T21:48:27.070Z,34.50
2018-02-08T21:50:53.157Z,35.08
2018-02-08T21:53:19.218Z,33.35
2018-02-08T21:55:45.630Z,35.15
2018-02-08T21:58:11.689Z,35.53
2018-02-08T22:00:37.756Z,35.50
2018-02-08T22:03:03.828Z,35.20
2018-02-08T22:05:29.890Z,36.70
2018-02-08T22:07:55.968Z,35.42
2018-02-08T22:10:22.066Z,34.25
2018-02-08T22:12:48.890Z,35.20
2018-02-08T22:15:14.961Z,33.70
2018-02-08T22:17:41.037Z,34.78
2018-02-08T22:20:07.109Z,33.53
2018-02-08T22:22:33.645Z,35.95
2018-02-08T22:24:59.724Z,35.70
2018-02-08T22:27:25.793Z,33.13
2018-02-08T22:29:51.878Z,33.28
2018-02-08T22:32:17.963Z,32.17
2018-02-08T22:34:44.029Z,34.20
2018-02-08T22:37:10.862Z,34.10
2018-02-08T22:39:36.931Z,35.78
2018-02-08T22:42:03.036Z,36.35
2018-02-08T22:44:29.153Z,34.00
2018-02-08T22:46:55.981Z,33.60
2018-02-08T22:49:22.075Z,34.13
2018-02-08T22:51:48.133Z,38.03
2018-02-08T22:54:14.208Z,32.58
2018-02-08T22:56:40.350Z,36.58
2018-02-08T22:59:06.422Z,34.92
2018-02-08T23:01:33.245Z,31.85
2018-02-08T23:03:59.305Z,35.58
2018-02-08T23:06:25.374Z,35.05
2018-02-08T23:08:51.446Z,35.67
2018-02-08T23:11:18.261Z,34.50
2018-02-08T23:13:44.329Z,33.67
2018-02-08T23:16:10.398Z,34.22
2018-02-08T23:18:36.489Z,35.85
2018-02-08T23:21:02.565Z,35.22
2018-02-08T23:23:28.644Z,34.28
2018-02-08T23:25:54.773Z,35.13
2018-02-08T23:28:20.853Z,33.42
2018-02-08T23:30:47.697Z,35.85
2018-02-08T23:33:13.769Z,35.67
2018-02-08T23:35:39.834Z,33.55
2018-02-08T23:38:05.902Z,34.00
2018-02-08T23:40:31.985Z,36.78
2018-02-08T23:42:58.057Z,33.55
2018-02-08T23:45:24.148Z,34.22
2018-02-08T23:47:50.978Z,36.38
2018-02-08T23:50:17.045Z,36.10
2018-02-08T23:52:43.114Z,34.95
2018-02-08T23:55:09.189Z,34.67
2018-02-08T23:57:35.334Z,36.15
